Terminal Aerodrome Forecast
Issued by NWS

Home | Current Version | Previous Version | Text Only | Print | Product List | Glossary Off
Versions: 1 2 3 4 5 6 7 8 9 10 11 12 13 14

000
FTUS42 KTBW 271700
TAFPIE
TAF
KPIE 271739Z 2718/2818 28011G18KT P6SM FEW040
     FM272100 29016G24KT P6SM FEW040
     FM280100 31011KT P6SM SKC
     FM280600 35010KT P6SM FEW250
     FM281400 36009KT P6SM FEW030 FEW250=

USA.gov is the U.S. government's official web portal to all federal, state and local government web resources and services.